YWLM/NTL METAR and TAF weather

Enter ICAO airport designator
Station Type Date Time Source
YWLM METAR 2021/03/04 22:00 UTC NOAA

YWLM 042200Z 29010KT 9999 FEW025 22/12 Q1007


Station Type Date Time Source
YWLM Decoded METAR 2021/03/04 22:00 UTC NOAA

Station name not available
Mar 04, 2021 - 05:00 PM EST / 2021.03.04 2200 UTC
Wind: from the WNW (290 degrees) at 12 MPH (10 KT):0
Visibility: greater than 7 mile(s):0
Sky conditions: mostly clear
Temperature: 71 F (22 C)
Dew Point: 53 F (12 C)
Relative Humidity: 53%
Pressure (altimeter): 29.74 in. Hg (1007 hPa)
ob: YWLM 042200Z 29010KT 9999 FEW025 22/12 Q1007
cycle: 22

Station Type Date Time Source
YWLM TAF 2021/03/04 23:12 UTC NOAA

TAF TAF
AMD YWLM 042208Z 0423/0518 22014KT 9999 SCT025
FM050100 17018G28KT 9999 -SHRA FEW015 BKN025
FM050800 18010KT 9999 -SHRA SCT025 BKN045 INTER 0500/0505 4000 SHRA BKN012

Example: see airport list